sensor_id;sensor_type;location;lat;lon;timestamp;P1;durP1;ratioP1;P2;durP2;ratioP2
4806;SDS011;2417;52.482;13.432;2023-10-13T00:00:42;26.93;;;10.30;;
4806;SDS011;2417;52.482;13.432;2023-10-13T00:03:12;23.70;;;8.33;;
4806;SDS011;2417;52.482;13.432;2023-10-13T00:05:43;22.03;;;8.00;;
4806;SDS011;2417;52.482;13.432;2023-10-13T00:08:11;15.10;;;7.60;;
4806;SDS011;2417;52.482;13.432;2023-10-13T00:10:41;19.40;;;8.90;;
4806;SDS011;2417;52.482;13.432;2023-10-13T00:13:09;21.57;;;7.20;;
4806;SDS011;2417;52.482;13.432;2023-10-13T00:15:41;23.07;;;8.23;;
4806;SDS011;2417;52.482;13.432;2023-10-13T00:18:23;31.33;;;7.50;;
4806;SDS011;2417;52.482;13.432;2023-10-13T00:20:53;19.83;;;7.80;;
4806;SDS011;2417;52.482;13.432;2023-10-13T00:23:23;18.87;;;7.20;;
4806;SDS011;2417;52.482;13.432;2023-10-13T00:25:54;19.83;;;7.90;;
4806;SDS011;2417;52.482;13.432;2023-10-13T00:28:26;24.30;;;7.40;;
4806;SDS011;2417;52.482;13.432;2023-10-13T00:31:02;23.97;;;7.40;;
4806;SDS011;2417;52.482;13.432;2023-10-13T00:33:39;25.57;;;8.10;;
4806;SDS011;2417;52.482;13.432;2023-10-13T00:36:08;23.13;;;8.20;;
4806;SDS011;2417;52.482;13.432;2023-10-13T00:38:44;20.97;;;7.83;;
4806;SDS011;2417;52.482;13.432;2023-10-13T00:41:15;22.20;;;7.37;;
4806;SDS011;2417;52.482;13.432;2023-10-13T00:43:45;12.57;;;6.97;;
4806;SDS011;2417;52.482;13.432;2023-10-13T00:46:12;19.37;;;8.03;;
4806;SDS011;2417;52.482;13.432;2023-10-13T00:48:47;15.37;;;7.60;;
4806;SDS011;2417;52.482;13.432;2023-10-13T00:51:19;15.40;;;7.70;;
4806;SDS011;2417;52.482;13.432;2023-10-13T00:54:03;20.97;;;8.23;;
4806;SDS011;2417;52.482;13.432;2023-10-13T00:56:35;22.87;;;9.30;;
4806;SDS011;2417;52.482;13.432;2023-10-13T00:59:10;28.47;;;9.20;;
4806;SDS011;2417;52.482;13.432;2023-10-13T01:01:40;19.77;;;8.40;;
4806;SDS011;2417;52.482;13.432;2023-10-13T01:04:12;22.17;;;8.33;;
4806;SDS011;2417;52.482;13.432;2023-10-13T01:06:40;22.07;;;8.47;;
4806;SDS011;2417;52.482;13.432;2023-10-13T01:09:08;15.83;;;7.87;;
4806;SDS011;2417;52.482;13.432;2023-10-13T01:11:42;18.67;;;8.07;;
4806;SDS011;2417;52.482;13.432;2023-10-13T01:14:11;17.40;;;6.90;;
4806;SDS011;2417;52.482;13.432;2023-10-13T01:16:39;18.70;;;7.20;;
4806;SDS011;2417;52.482;13.432;2023-10-13T01:19:12;13.33;;;6.00;;
4806;SDS011;2417;52.482;13.432;2023-10-13T01:21:39;13.20;;;6.50;;
4806;SDS011;2417;52.482;13.432;2023-10-13T01:24:09;13.63;;;6.87;;
4806;SDS011;2417;52.482;13.432;2023-10-13T01:26:40;16.43;;;6.50;;
4806;SDS011;2417;52.482;13.432;2023-10-13T01:29:09;17.10;;;7.50;;
4806;SDS011;2417;52.482;13.432;2023-10-13T01:31:40;16.23;;;7.60;;
4806;SDS011;2417;52.482;13.432;2023-10-13T01:34:13;22.13;;;7.83;;
4806;SDS011;2417;52.482;13.432;2023-10-13T01:36:47;20.30;;;7.03;;
4806;SDS011;2417;52.482;13.432;2023-10-13T01:39:18;19.17;;;7.73;;
4806;SDS011;2417;52.482;13.432;2023-10-13T01:41:48;21.13;;;7.87;;
4806;SDS011;2417;52.482;13.432;2023-10-13T01:44:23;17.70;;;8.20;;
4806;SDS011;2417;52.482;13.432;2023-10-13T01:46:50;16.63;;;8.37;;
4806;SDS011;2417;52.482;13.432;2023-10-13T01:49:18;22.37;;;8.87;;
4806;SDS011;2417;52.482;13.432;2023-10-13T01:51:46;18.50;;;9.07;;
4806;SDS011;2417;52.482;13.432;2023-10-13T01:54:15;20.40;;;8.77;;
4806;SDS011;2417;52.482;13.432;2023-10-13T01:56:45;19.83;;;8.93;;
4806;SDS011;2417;52.482;13.432;2023-10-13T01:59:16;18.17;;;9.73;;
4806;SDS011;2417;52.482;13.432;2023-10-13T02:01:43;22.33;;;10.37;;
4806;SDS011;2417;52.482;13.432;2023-10-13T02:04:11;19.80;;;8.93;;
4806;SDS011;2417;52.482;13.432;2023-10-13T02:06:38;26.00;;;9.47;;
4806;SDS011;2417;52.482;13.432;2023-10-13T02:09:07;21.53;;;10.57;;
4806;SDS011;2417;52.482;13.432;2023-10-13T02:11:44;24.13;;;9.50;;
4806;SDS011;2417;52.482;13.432;2023-10-13T02:14:14;22.13;;;10.83;;
4806;SDS011;2417;52.482;13.432;2023-10-13T02:16:43;20.33;;;9.57;;
4806;SDS011;2417;52.482;13.432;2023-10-13T02:19:14;25.53;;;10.70;;
4806;SDS011;2417;52.482;13.432;2023-10-13T02:21:43;22.30;;;10.73;;
4806;SDS011;2417;52.482;13.432;2023-10-13T02:24:13;27.53;;;11.03;;
4806;SDS011;2417;52.482;13.432;2023-10-13T02:26:44;25.50;;;10.73;;
4806;SDS011;2417;52.482;13.432;2023-10-13T02:29:12;24.77;;;10.63;;
4806;SDS011;2417;52.482;13.432;2023-10-13T02:31:42;24.20;;;11.17;;
4806;SDS011;2417;52.482;13.432;2023-10-13T02:34:20;25.17;;;11.50;;
4806;SDS011;2417;52.482;13.432;2023-10-13T02:36:49;27.43;;;11.30;;
4806;SDS011;2417;52.482;13.432;2023-10-13T02:39:18;27.47;;;11.50;;
4806;SDS011;2417;52.482;13.432;2023-10-13T02:41:53;27.90;;;11.97;;
4806;SDS011;2417;52.482;13.432;2023-10-13T02:44:22;30.83;;;12.93;;
4806;SDS011;2417;52.482;13.432;2023-10-13T02:46:59;32.87;;;12.47;;
4806;SDS011;2417;52.482;13.432;2023-10-13T02:49:27;37.60;;;12.67;;
4806;SDS011;2417;52.482;13.432;2023-10-13T02:51:58;35.30;;;13.40;;
4806;SDS011;2417;52.482;13.432;2023-10-13T02:54:32;39.80;;;12.77;;
4806;SDS011;2417;52.482;13.432;2023-10-13T02:57:06;32.73;;;12.43;;
4806;SDS011;2417;52.482;13.432;2023-10-13T02:59:34;35.30;;;12.53;;
4806;SDS011;2417;52.482;13.432;2023-10-13T03:02:03;29.10;;;12.67;;
4806;SDS011;2417;52.482;13.432;2023-10-13T03:04:46;36.27;;;13.80;;
4806;SDS011;2417;52.482;13.432;2023-10-13T03:07:13;31.00;;;13.50;;
4806;SDS011;2417;52.482;13.432;2023-10-13T03:09:42;35.60;;;13.87;;
4806;SDS011;2417;52.482;13.432;2023-10-13T03:12:18;35.27;;;13.87;;
4806;SDS011;2417;52.482;13.432;2023-10-13T03:14:47;35.07;;;14.03;;
4806;SDS011;2417;52.482;13.432;2023-10-13T03:17:16;34.60;;;13.67;;
4806;SDS011;2417;52.482;13.432;2023-10-13T03:19:49;33.70;;;14.07;;
4806;SDS011;2417;52.482;13.432;2023-10-13T03:22:17;37.20;;;14.20;;
4806;SDS011;2417;52.482;13.432;2023-10-13T03:24:57;30.30;;;13.00;;
4806;SDS011;2417;52.482;13.432;2023-10-13T03:27:26;38.27;;;14.30;;
4806;SDS011;2417;52.482;13.432;2023-10-13T03:30:07;31.03;;;14.90;;
4806;SDS011;2417;52.482;13.432;2023-10-13T03:32:42;48.13;;;14.90;;
4806;SDS011;2417;52.482;13.432;2023-10-13T03:35:13;38.90;;;15.43;;
4806;SDS011;2417;52.482;13.432;2023-10-13T03:37:50;42.27;;;16.27;;
4806;SDS011;2417;52.482;13.432;2023-10-13T03:40:18;41.37;;;16.63;;
4806;SDS011;2417;52.482;13.432;2023-10-13T03:43:14;37.83;;;15.87;;
4806;SDS011;2417;52.482;13.432;2023-10-13T03:45:44;41.90;;;15.70;;
4806;SDS011;2417;52.482;13.432;2023-10-13T03:48:14;39.50;;;16.10;;
4806;SDS011;2417;52.482;13.432;2023-10-13T03:50:56;46.70;;;17.00;;
4806;SDS011;2417;52.482;13.432;2023-10-13T03:53:29;43.93;;;17.90;;
4806;SDS011;2417;52.482;13.432;2023-10-13T03:56:00;42.73;;;17.10;;
4806;SDS011;2417;52.482;13.432;2023-10-13T03:58:40;43.23;;;17.60;;
4806;SDS011;2417;52.482;13.432;2023-10-13T04:01:13;40.90;;;17.80;;
4806;SDS011;2417;52.482;13.432;2023-10-13T04:03:42;39.60;;;17.70;;
4806;SDS011;2417;52.482;13.432;2023-10-13T04:06:24;38.07;;;17.20;;
4806;SDS011;2417;52.482;13.432;2023-10-13T04:09:14;36.03;;;17.40;;
4806;SDS011;2417;52.482;13.432;2023-10-13T04:12:00;40.27;;;18.90;;
4806;SDS011;2417;52.482;13.432;2023-10-13T04:15:10;39.57;;;17.93;;
4806;SDS011;2417;52.482;13.432;2023-10-13T04:17:44;48.43;;;19.33;;
4806;SDS011;2417;52.482;13.432;2023-10-13T04:20:13;48.00;;;18.97;;
4806;SDS011;2417;52.482;13.432;2023-10-13T04:22:53;42.60;;;20.17;;
4806;SDS011;2417;52.482;13.432;2023-10-13T04:25:38;47.53;;;20.53;;
4806;SDS011;2417;52.482;13.432;2023-10-13T04:28:19;44.87;;;19.87;;
4806;SDS011;2417;52.482;13.432;2023-10-13T04:31:03;47.87;;;21.30;;
4806;SDS011;2417;52.482;13.432;2023-10-13T04:33:39;56.63;;;21.67;;
4806;SDS011;2417;52.482;13.432;2023-10-13T04:36:18;56.20;;;22.50;;
4806;SDS011;2417;52.482;13.432;2023-10-13T04:39:03;56.60;;;21.77;;
4806;SDS011;2417;52.482;13.432;2023-10-13T04:41:36;52.00;;;22.37;;
4806;SDS011;2417;52.482;13.432;2023-10-13T04:44:12;50.53;;;23.17;;
4806;SDS011;2417;52.482;13.432;2023-10-13T04:47:11;51.20;;;22.97;;
4806;SDS011;2417;52.482;13.432;2023-10-13T04:49:50;46.07;;;22.40;;
4806;SDS011;2417;52.482;13.432;2023-10-13T04:52:18;53.80;;;23.87;;
4806;SDS011;2417;52.482;13.432;2023-10-13T04:55:05;62.23;;;24.03;;
4806;SDS011;2417;52.482;13.432;2023-10-13T04:57:59;59.00;;;25.37;;
4806;SDS011;2417;52.482;13.432;2023-10-13T05:00:38;45.80;;;23.27;;
4806;SDS011;2417;52.482;13.432;2023-10-13T05:03:51;44.50;;;21.47;;
4806;SDS011;2417;52.482;13.432;2023-10-13T05:06:48;51.67;;;23.73;;
4806;SDS011;2417;52.482;13.432;2023-10-13T05:09:45;65.40;;;25.07;;
4806;SDS011;2417;52.482;13.432;2023-10-13T05:12:42;60.23;;;23.50;;
4806;SDS011;2417;52.482;13.432;2023-10-13T05:15:27;48.57;;;23.27;;
4806;SDS011;2417;52.482;13.432;2023-10-13T05:18:13;47.80;;;22.80;;
4806;SDS011;2417;52.482;13.432;2023-10-13T05:20:59;58.03;;;24.67;;
4806;SDS011;2417;52.482;13.432;2023-10-13T05:23:45;47.30;;;22.10;;
4806;SDS011;2417;52.482;13.432;2023-10-13T05:26:31;48.37;;;23.00;;
4806;SDS011;2417;52.482;13.432;2023-10-13T05:29:16;50.57;;;23.23;;
4806;SDS011;2417;52.482;13.432;2023-10-13T05:32:01;51.93;;;22.70;;
4806;SDS011;2417;52.482;13.432;2023-10-13T05:34:47;42.50;;;22.27;;
4806;SDS011;2417;52.482;13.432;2023-10-13T05:37:33;49.17;;;21.93;;
4806;SDS011;2417;52.482;13.432;2023-10-13T05:40:19;46.83;;;22.10;;
4806;SDS011;2417;52.482;13.432;2023-10-13T05:43:05;61.77;;;23.53;;
4806;SDS011;2417;52.482;13.432;2023-10-13T05:45:50;55.53;;;23.70;;
4806;SDS011;2417;52.482;13.432;2023-10-13T05:48:44;44.97;;;21.63;;
4806;SDS011;2417;52.482;13.432;2023-10-13T05:51:36;54.63;;;23.40;;
4806;SDS011;2417;52.482;13.432;2023-10-13T05:54:15;53.87;;;23.17;;
4806;SDS011;2417;52.482;13.432;2023-10-13T05:57:02;52.10;;;24.23;;
4806;SDS011;2417;52.482;13.432;2023-10-13T05:59:48;46.90;;;22.43;;
4806;SDS011;2417;52.482;13.432;2023-10-13T06:02:34;51.43;;;23.30;;
4806;SDS011;2417;52.482;13.432;2023-10-13T06:05:20;53.47;;;22.43;;
4806;SDS011;2417;52.482;13.432;2023-10-13T06:08:05;41.90;;;22.90;;
4806;SDS011;2417;52.482;13.432;2023-10-13T06:11:00;46.40;;;24.40;;
4806;SDS011;2417;52.482;13.432;2023-10-13T06:13:46;52.07;;;23.87;;
4806;SDS011;2417;52.482;13.432;2023-10-13T06:16:31;46.50;;;23.73;;
4806;SDS011;2417;52.482;13.432;2023-10-13T06:19:17;48.37;;;24.00;;
4806;SDS011;2417;52.482;13.432;2023-10-13T06:22:03;52.20;;;23.93;;
4806;SDS011;2417;52.482;13.432;2023-10-13T06:24:49;48.97;;;23.80;;
4806;SDS011;2417;52.482;13.432;2023-10-13T06:27:36;46.27;;;24.03;;
4806;SDS011;2417;52.482;13.432;2023-10-13T06:30:21;51.20;;;23.90;;
4806;SDS011;2417;52.482;13.432;2023-10-13T06:32:49;46.40;;;23.83;;
4806;SDS011;2417;52.482;13.432;2023-10-13T06:35:18;45.27;;;23.53;;
4806;SDS011;2417;52.482;13.432;2023-10-13T06:37:50;48.83;;;24.60;;
4806;SDS011;2417;52.482;13.432;2023-10-13T06:40:18;56.37;;;23.43;;
4806;SDS011;2417;52.482;13.432;2023-10-13T06:43:03;44.77;;;22.93;;
4806;SDS011;2417;52.482;13.432;2023-10-13T06:45:45;50.90;;;23.93;;
4806;SDS011;2417;52.482;13.432;2023-10-13T06:48:17;47.63;;;24.40;;
4806;SDS011;2417;52.482;13.432;2023-10-13T06:50:47;47.10;;;22.80;;
4806;SDS011;2417;52.482;13.432;2023-10-13T06:53:16;45.23;;;23.10;;
4806;SDS011;2417;52.482;13.432;2023-10-13T06:55:45;48.87;;;22.33;;
4806;SDS011;2417;52.482;13.432;2023-10-13T06:58:17;47.23;;;22.23;;
4806;SDS011;2417;52.482;13.432;2023-10-13T07:00:52;38.93;;;20.57;;
4806;SDS011;2417;52.482;13.432;2023-10-13T07:03:25;39.93;;;22.53;;
4806;SDS011;2417;52.482;13.432;2023-10-13T07:05:53;49.33;;;23.00;;
4806;SDS011;2417;52.482;13.432;2023-10-13T07:08:26;48.77;;;21.30;;
4806;SDS011;2417;52.482;13.432;2023-10-13T07:10:54;40.00;;;20.23;;
4806;SDS011;2417;52.482;13.432;2023-10-13T07:13:31;39.03;;;19.07;;
4806;SDS011;2417;52.482;13.432;2023-10-13T07:16:04;33.50;;;16.47;;
4806;SDS011;2417;52.482;13.432;2023-10-13T07:18:54;35.27;;;17.87;;
4806;SDS011;2417;52.482;13.432;2023-10-13T07:21:22;31.07;;;17.23;;
4806;SDS011;2417;52.482;13.432;2023-10-13T07:23:57;35.63;;;19.37;;
4806;SDS011;2417;52.482;13.432;2023-10-13T07:26:35;30.63;;;15.97;;
4806;SDS011;2417;52.482;13.432;2023-10-13T07:29:11;30.13;;;18.33;;
4806;SDS011;2417;52.482;13.432;2023-10-13T07:31:39;27.17;;;15.93;;
4806;SDS011;2417;52.482;13.432;2023-10-13T07:34:11;27.23;;;15.97;;
4806;SDS011;2417;52.482;13.432;2023-10-13T07:36:52;24.67;;;15.47;;
4806;SDS011;2417;52.482;13.432;2023-10-13T07:39:20;29.93;;;15.10;;
4806;SDS011;2417;52.482;13.432;2023-10-13T07:41:51;23.40;;;14.30;;
4806;SDS011;2417;52.482;13.432;2023-10-13T07:44:22;25.20;;;14.20;;
4806;SDS011;2417;52.482;13.432;2023-10-13T07:46:55;28.27;;;14.20;;
4806;SDS011;2417;52.482;13.432;2023-10-13T07:49:28;23.60;;;14.10;;
4806;SDS011;2417;52.482;13.432;2023-10-13T07:51:58;23.90;;;13.90;;
4806;SDS011;2417;52.482;13.432;2023-10-13T07:54:27;21.00;;;13.67;;
4806;SDS011;2417;52.482;13.432;2023-10-13T07:56:55;23.03;;;12.57;;
4806;SDS011;2417;52.482;13.432;2023-10-13T07:59:24;22.43;;;11.93;;
4806;SDS011;2417;52.482;13.432;2023-10-13T08:01:52;26.10;;;11.73;;
4806;SDS011;2417;52.482;13.432;2023-10-13T08:04:39;18.80;;;11.27;;
4806;SDS011;2417;52.482;13.432;2023-10-13T08:07:07;23.43;;;11.87;;
4806;SDS011;2417;52.482;13.432;2023-10-13T08:09:41;23.37;;;10.53;;
4806;SDS011;2417;52.482;13.432;2023-10-13T08:12:10;16.87;;;10.47;;
4806;SDS011;2417;52.482;13.432;2023-10-13T08:14:41;23.73;;;10.07;;
4806;SDS011;2417;52.482;13.432;2023-10-13T08:17:12;27.53;;;10.57;;
4806;SDS011;2417;52.482;13.432;2023-10-13T08:19:41;28.80;;;11.70;;
4806;SDS011;2417;52.482;13.432;2023-10-13T08:22:13;19.87;;;10.90;;
4806;SDS011;2417;52.482;13.432;2023-10-13T08:25:03;17.67;;;9.60;;
4806;SDS011;2417;52.482;13.432;2023-10-13T08:27:51;14.23;;;9.63;;
4806;SDS011;2417;52.482;13.432;2023-10-13T08:30:34;20.83;;;9.77;;
4806;SDS011;2417;52.482;13.432;2023-10-13T08:33:19;15.70;;;8.67;;
4806;SDS011;2417;52.482;13.432;2023-10-13T08:35:51;18.33;;;8.47;;
4806;SDS011;2417;52.482;13.432;2023-10-13T08:38:37;21.70;;;9.07;;
4806;SDS011;2417;52.482;13.432;2023-10-13T08:41:18;18.00;;;8.33;;
4806;SDS011;2417;52.482;13.432;2023-10-13T08:44:20;18.03;;;9.30;;
4806;SDS011;2417;52.482;13.432;2023-10-13T08:47:12;15.30;;;8.67;;
4806;SDS011;2417;52.482;13.432;2023-10-13T08:49:44;16.80;;;9.23;;
4806;SDS011;2417;52.482;13.432;2023-10-13T08:52:17;16.77;;;7.70;;
4806;SDS011;2417;52.482;13.432;2023-10-13T08:55:04;17.03;;;8.90;;
4806;SDS011;2417;52.482;13.432;2023-10-13T08:57:46;28.70;;;9.20;;
4806;SDS011;2417;52.482;13.432;2023-10-13T09:00:16;17.57;;;8.93;;
4806;SDS011;2417;52.482;13.432;2023-10-13T09:03:21;13.10;;;8.23;;
4806;SDS011;2417;52.482;13.432;2023-10-13T09:06:06;17.30;;;8.70;;
4806;SDS011;2417;52.482;13.432;2023-10-13T09:08:33;19.60;;;8.27;;
4806;SDS011;2417;52.482;13.432;2023-10-13T09:11:11;16.40;;;8.23;;
4806;SDS011;2417;52.482;13.432;2023-10-13T09:13:39;16.07;;;8.10;;
4806;SDS011;2417;52.482;13.432;2023-10-13T09:16:14;23.37;;;9.10;;
4806;SDS011;2417;52.482;13.432;2023-10-13T09:18:51;20.17;;;7.80;;
4806;SDS011;2417;52.482;13.432;2023-10-13T09:21:19;14.80;;;8.50;;
4806;SDS011;2417;52.482;13.432;2023-10-13T09:24:01;19.53;;;8.70;;
4806;SDS011;2417;52.482;13.432;2023-10-13T09:26:43;13.40;;;8.90;;
4806;SDS011;2417;52.482;13.432;2023-10-13T09:29:15;14.10;;;8.23;;
4806;SDS011;2417;52.482;13.432;2023-10-13T09:31:46;14.67;;;8.30;;
4806;SDS011;2417;52.482;13.432;2023-10-13T09:34:22;18.60;;;9.27;;
4806;SDS011;2417;52.482;13.432;2023-10-13T09:36:50;15.30;;;8.90;;
4806;SDS011;2417;52.482;13.432;2023-10-13T09:39:23;21.90;;;9.03;;
4806;SDS011;2417;52.482;13.432;2023-10-13T09:41:56;16.23;;;9.60;;
4806;SDS011;2417;52.482;13.432;2023-10-13T09:44:26;20.83;;;10.23;;
4806;SDS011;2417;52.482;13.432;2023-10-13T09:47:00;18.20;;;10.60;;
4806;SDS011;2417;52.482;13.432;2023-10-13T09:49:39;16.73;;;10.07;;
4806;SDS011;2417;52.482;13.432;2023-10-13T09:52:16;17.77;;;10.00;;
4806;SDS011;2417;52.482;13.432;2023-10-13T09:54:50;19.13;;;11.70;;
4806;SDS011;2417;52.482;13.432;2023-10-13T09:57:27;24.77;;;10.50;;
4806;SDS011;2417;52.482;13.432;2023-10-13T10:00:09;25.50;;;11.10;;
4806;SDS011;2417;52.482;13.432;2023-10-13T10:02:56;18.67;;;10.63;;
4806;SDS011;2417;52.482;13.432;2023-10-13T10:05:34;20.70;;;11.17;;
4806;SDS011;2417;52.482;13.432;2023-10-13T10:08:03;20.23;;;10.53;;
4806;SDS011;2417;52.482;13.432;2023-10-13T10:10:39;21.67;;;10.40;;
4806;SDS011;2417;52.482;13.432;2023-10-13T10:13:13;17.73;;;10.30;;
4806;SDS011;2417;52.482;13.432;2023-10-13T10:15:44;17.63;;;10.67;;
4806;SDS011;2417;52.482;13.432;2023-10-13T10:18:19;18.47;;;10.13;;
4806;SDS011;2417;52.482;13.432;2023-10-13T10:20:50;21.77;;;10.80;;
4806;SDS011;2417;52.482;13.432;2023-10-13T10:23:23;19.63;;;10.43;;
4806;SDS011;2417;52.482;13.432;2023-10-13T10:25:51;18.30;;;11.07;;
4806;SDS011;2417;52.482;13.432;2023-10-13T10:28:19;18.80;;;10.97;;
4806;SDS011;2417;52.482;13.432;2023-10-13T10:30:48;23.40;;;10.30;;
4806;SDS011;2417;52.482;13.432;2023-10-13T10:33:16;16.37;;;10.10;;
4806;SDS011;2417;52.482;13.432;2023-10-13T10:35:45;13.80;;;9.70;;
4806;SDS011;2417;52.482;13.432;2023-10-13T10:38:15;16.97;;;11.67;;
4806;SDS011;2417;52.482;13.432;2023-10-13T10:40:51;22.83;;;10.17;;
4806;SDS011;2417;52.482;13.432;2023-10-13T10:43:25;17.20;;;10.40;;
4806;SDS011;2417;52.482;13.432;2023-10-13T10:46:02;21.80;;;9.53;;
4806;SDS011;2417;52.482;13.432;2023-10-13T10:48:32;16.70;;;9.97;;
4806;SDS011;2417;52.482;13.432;2023-10-13T10:51:01;17.30;;;10.27;;
4806;SDS011;2417;52.482;13.432;2023-10-13T10:53:42;19.93;;;9.63;;
4806;SDS011;2417;52.482;13.432;2023-10-13T10:56:13;20.20;;;9.73;;
4806;SDS011;2417;52.482;13.432;2023-10-13T10:58:50;17.30;;;10.00;;
4806;SDS011;2417;52.482;13.432;2023-10-13T11:01:22;22.73;;;10.57;;
4806;SDS011;2417;52.482;13.432;2023-10-13T11:03:52;20.27;;;10.20;;
4806;SDS011;2417;52.482;13.432;2023-10-13T11:06:24;15.90;;;10.10;;
4806;SDS011;2417;52.482;13.432;2023-10-13T11:09:04;19.20;;;10.47;;
4806;SDS011;2417;52.482;13.432;2023-10-13T11:11:45;19.30;;;11.47;;
4806;SDS011;2417;52.482;13.432;2023-10-13T11:14:20;21.43;;;10.87;;
4806;SDS011;2417;52.482;13.432;2023-10-13T11:16:51;17.90;;;9.97;;
4806;SDS011;2417;52.482;13.432;2023-10-13T11:19:21;19.83;;;11.37;;
4806;SDS011;2417;52.482;13.432;2023-10-13T11:21:52;21.50;;;11.77;;
4806;SDS011;2417;52.482;13.432;2023-10-13T11:24:24;18.70;;;10.40;;
4806;SDS011;2417;52.482;13.432;2023-10-13T11:26:51;22.37;;;11.30;;
4806;SDS011;2417;52.482;13.432;2023-10-13T11:29:30;16.20;;;9.80;;
4806;SDS011;2417;52.482;13.432;2023-10-13T11:32:01;16.50;;;10.87;;
4806;SDS011;2417;52.482;13.432;2023-10-13T11:34:30;16.30;;;9.83;;
4806;SDS011;2417;52.482;13.432;2023-10-13T11:37:09;20.80;;;11.53;;
4806;SDS011;2417;52.482;13.432;2023-10-13T11:40:06;19.20;;;10.90;;
4806;SDS011;2417;52.482;13.432;2023-10-13T11:42:42;19.30;;;11.70;;
4806;SDS011;2417;52.482;13.432;2023-10-13T11:45:14;23.97;;;13.27;;
4806;SDS011;2417;52.482;13.432;2023-10-13T11:47:55;20.40;;;11.20;;
4806;SDS011;2417;52.482;13.432;2023-10-13T11:50:26;24.97;;;11.10;;
4806;SDS011;2417;52.482;13.432;2023-10-13T11:53:00;20.13;;;11.30;;
4806;SDS011;2417;52.482;13.432;2023-10-13T11:55:35;18.00;;;10.23;;
4806;SDS011;2417;52.482;13.432;2023-10-13T11:58:03;23.13;;;11.13;;
4806;SDS011;2417;52.482;13.432;2023-10-13T12:00:32;19.43;;;10.83;;
4806;SDS011;2417;52.482;13.432;2023-10-13T12:03:14;16.33;;;10.53;;
4806;SDS011;2417;52.482;13.432;2023-10-13T12:05:59;21.77;;;10.50;;
4806;SDS011;2417;52.482;13.432;2023-10-13T12:08:45;21.70;;;10.47;;
4806;SDS011;2417;52.482;13.432;2023-10-13T12:11:19;25.30;;;10.33;;
4806;SDS011;2417;52.482;13.432;2023-10-13T12:14:00;19.03;;;11.37;;
4806;SDS011;2417;52.482;13.432;2023-10-13T12:16:44;17.83;;;9.97;;
4806;SDS011;2417;52.482;13.432;2023-10-13T12:19:15;18.40;;;10.13;;
4806;SDS011;2417;52.482;13.432;2023-10-13T12:21:43;20.10;;;9.77;;
4806;SDS011;2417;52.482;13.432;2023-10-13T12:24:13;27.57;;;10.20;;
4806;SDS011;2417;52.482;13.432;2023-10-13T12:26:50;24.17;;;10.30;;
4806;SDS011;2417;52.482;13.432;2023-10-13T12:29:25;24.10;;;9.93;;
4806;SDS011;2417;52.482;13.432;2023-10-13T12:31:55;26.90;;;10.13;;
4806;SDS011;2417;52.482;13.432;2023-10-13T12:34:35;31.43;;;10.53;;
4806;SDS011;2417;52.482;13.432;2023-10-13T12:37:17;21.80;;;9.37;;
4806;SDS011;2417;52.482;13.432;2023-10-13T12:40:05;17.80;;;9.57;;
4806;SDS011;2417;52.482;13.432;2023-10-13T12:42:52;22.47;;;9.80;;
4806;SDS011;2417;52.482;13.432;2023-10-13T12:45:38;21.47;;;9.17;;
4806;SDS011;2417;52.482;13.432;2023-10-13T12:48:24;21.00;;;9.13;;
4806;SDS011;2417;52.482;13.432;2023-10-13T12:51:09;19.47;;;9.10;;
4806;SDS011;2417;52.482;13.432;2023-10-13T12:53:47;16.80;;;8.97;;
4806;SDS011;2417;52.482;13.432;2023-10-13T12:56:15;18.60;;;9.03;;
4806;SDS011;2417;52.482;13.432;2023-10-13T12:58:45;17.63;;;9.20;;
4806;SDS011;2417;52.482;13.432;2023-10-13T13:01:18;17.73;;;8.87;;
4806;SDS011;2417;52.482;13.432;2023-10-13T13:03:48;20.03;;;8.53;;
4806;SDS011;2417;52.482;13.432;2023-10-13T13:06:16;21.90;;;8.40;;
4806;SDS011;2417;52.482;13.432;2023-10-13T13:08:51;20.00;;;8.30;;
4806;SDS011;2417;52.482;13.432;2023-10-13T13:11:19;20.00;;;8.53;;
4806;SDS011;2417;52.482;13.432;2023-10-13T13:13:53;21.30;;;7.67;;
4806;SDS011;2417;52.482;13.432;2023-10-13T13:16:21;16.20;;;8.53;;
4806;SDS011;2417;52.482;13.432;2023-10-13T13:18:52;22.53;;;8.50;;
4806;SDS011;2417;52.482;13.432;2023-10-13T13:21:21;17.27;;;8.37;;
4806;SDS011;2417;52.482;13.432;2023-10-13T13:23:50;24.20;;;9.17;;
4806;SDS011;2417;52.482;13.432;2023-10-13T13:26:21;21.00;;;9.27;;
4806;SDS011;2417;52.482;13.432;2023-10-13T13:28:49;20.03;;;7.87;;
4806;SDS011;2417;52.482;13.432;2023-10-13T13:31:19;15.67;;;7.67;;
4806;SDS011;2417;52.482;13.432;2023-10-13T13:33:52;24.33;;;8.00;;
4806;SDS011;2417;52.482;13.432;2023-10-13T13:36:20;22.20;;;7.23;;
4806;SDS011;2417;52.482;13.432;2023-10-13T13:38:49;25.97;;;8.17;;
4806;SDS011;2417;52.482;13.432;2023-10-13T13:41:18;21.03;;;8.53;;
4806;SDS011;2417;52.482;13.432;2023-10-13T13:43:47;18.30;;;7.63;;
4806;SDS011;2417;52.482;13.432;2023-10-13T13:46:23;19.43;;;6.87;;
4806;SDS011;2417;52.482;13.432;2023-10-13T13:48:54;18.57;;;8.10;;
4806;SDS011;2417;52.482;13.432;2023-10-13T13:51:26;12.97;;;7.10;;
4806;SDS011;2417;52.482;13.432;2023-10-13T13:53:55;21.97;;;7.70;;
4806;SDS011;2417;52.482;13.432;2023-10-13T13:56:23;16.77;;;6.93;;
4806;SDS011;2417;52.482;13.432;2023-10-13T13:58:54;21.13;;;7.97;;
4806;SDS011;2417;52.482;13.432;2023-10-13T14:01:24;19.20;;;7.17;;
4806;SDS011;2417;52.482;13.432;2023-10-13T14:03:53;15.80;;;7.30;;
4806;SDS011;2417;52.482;13.432;2023-10-13T14:06:24;23.07;;;7.67;;
4806;SDS011;2417;52.482;13.432;2023-10-13T14:08:57;18.00;;;7.60;;
4806;SDS011;2417;52.482;13.432;2023-10-13T14:11:27;20.63;;;8.03;;
4806;SDS011;2417;52.482;13.432;2023-10-13T14:14:15;19.10;;;6.73;;
4806;SDS011;2417;52.482;13.432;2023-10-13T14:16:58;15.67;;;7.40;;
4806;SDS011;2417;52.482;13.432;2023-10-13T14:19:34;19.00;;;7.57;;
4806;SDS011;2417;52.482;13.432;2023-10-13T14:22:07;15.37;;;6.83;;
4806;SDS011;2417;52.482;13.432;2023-10-13T14:24:39;18.03;;;7.60;;
4806;SDS011;2417;52.482;13.432;2023-10-13T14:27:14;20.83;;;7.63;;
4806;SDS011;2417;52.482;13.432;2023-10-13T14:29:46;18.07;;;5.77;;
4806;SDS011;2417;52.482;13.432;2023-10-13T14:32:15;15.63;;;7.83;;
4806;SDS011;2417;52.482;13.432;2023-10-13T14:34:44;14.00;;;7.17;;
4806;SDS011;2417;52.482;13.432;2023-10-13T14:37:12;17.43;;;6.80;;
4806;SDS011;2417;52.482;13.432;2023-10-13T14:39:40;21.40;;;6.60;;
4806;SDS011;2417;52.482;13.432;2023-10-13T14:42:08;23.47;;;6.87;;
4806;SDS011;2417;52.482;13.432;2023-10-13T14:44:36;29.57;;;7.23;;
4806;SDS011;2417;52.482;13.432;2023-10-13T14:47:04;18.77;;;7.20;;
4806;SDS011;2417;52.482;13.432;2023-10-13T14:49:37;17.83;;;7.87;;
4806;SDS011;2417;52.482;13.432;2023-10-13T14:52:05;27.53;;;7.57;;
4806;SDS011;2417;52.482;13.432;2023-10-13T14:54:33;21.97;;;7.53;;
4806;SDS011;2417;52.482;13.432;2023-10-13T14:57:01;16.97;;;6.57;;
4806;SDS011;2417;52.482;13.432;2023-10-13T14:59:30;19.30;;;7.33;;
4806;SDS011;2417;52.482;13.432;2023-10-13T15:02:01;18.60;;;8.30;;
4806;SDS011;2417;52.482;13.432;2023-10-13T15:04:30;18.70;;;7.83;;
4806;SDS011;2417;52.482;13.432;2023-10-13T15:07:01;17.83;;;7.50;;
4806;SDS011;2417;52.482;13.432;2023-10-13T15:09:29;18.50;;;7.07;;
4806;SDS011;2417;52.482;13.432;2023-10-13T15:11:58;23.70;;;7.40;;
4806;SDS011;2417;52.482;13.432;2023-10-13T15:14:26;19.93;;;7.67;;
4806;SDS011;2417;52.482;13.432;2023-10-13T15:16:54;18.50;;;7.60;;
4806;SDS011;2417;52.482;13.432;2023-10-13T15:19:27;17.80;;;7.73;;
4806;SDS011;2417;52.482;13.432;2023-10-13T15:21:56;31.63;;;7.77;;
4806;SDS011;2417;52.482;13.432;2023-10-13T15:24:27;18.93;;;7.30;;
4806;SDS011;2417;52.482;13.432;2023-10-13T15:26:59;22.93;;;7.30;;